createdAt,value
2023-01-18T00:00:33.034Z,18.27
2023-01-18T00:03:02.165Z,20.65
2023-01-18T00:05:32.108Z,13.90
2023-01-18T00:07:59.767Z,16.45
2023-01-18T00:10:27.750Z,18.88
2023-01-18T00:12:55.917Z,12.68
2023-01-18T00:15:24.071Z,14.32
2023-01-18T00:17:52.533Z,16.23
2023-01-18T00:20:25.159Z,19.00
2023-01-18T00:22:53.168Z,16.95
2023-01-18T00:25:23.323Z,15.00
2023-01-18T00:27:53.206Z,15.32
2023-01-18T00:30:22.943Z,14.07
2023-01-18T00:32:53.848Z,17.15
2023-01-18T00:35:23.172Z,14.57
2023-01-18T00:37:51.580Z,19.15
2023-01-18T00:40:20.064Z,19.38
2023-01-18T00:43:05.493Z,17.00
2023-01-18T00:45:33.234Z,18.40
2023-01-18T00:48:02.811Z,19.77
2023-01-18T00:50:31.929Z,23.77
2023-01-18T00:53:00.184Z,19.73
2023-01-18T00:55:28.202Z,18.15
2023-01-18T00:57:55.954Z,17.38
2023-01-18T01:00:27.019Z,18.20
2023-01-18T01:02:55.057Z,19.83
2023-01-18T01:05:42.192Z,14.00
2023-01-18T01:08:17.025Z,14.20
2023-01-18T01:10:46.505Z,15.27
2023-01-18T01:13:32.357Z,13.77
2023-01-18T01:16:18.010Z,16.55
2023-01-18T01:19:03.196Z,19.77
2023-01-18T01:21:49.160Z,18.70
2023-01-18T01:24:35.735Z,19.42
2023-01-18T01:27:03.581Z,23.77
2023-01-18T01:29:31.328Z,20.77
2023-01-18T01:31:59.062Z,19.30
2023-01-18T01:34:27.039Z,15.05
2023-01-18T01:36:54.707Z,11.00
2023-01-18T01:39:23.895Z,18.35
2023-01-18T01:41:51.693Z,18.02
2023-01-18T01:44:43.014Z,22.35
2023-01-18T01:47:15.586Z,18.83
2023-01-18T01:49:47.680Z,16.30
2023-01-18T01:52:20.780Z,22.13
2023-01-18T01:54:54.350Z,17.50
2023-01-18T01:57:26.003Z,20.83
2023-01-18T02:00:00.204Z,17.73
2023-01-18T02:02:29.164Z,15.75
2023-01-18T02:04:59.127Z,19.42
2023-01-18T02:07:28.791Z,14.80
2023-01-18T02:09:59.493Z,14.02
2023-01-18T02:12:29.587Z,20.27
2023-01-18T02:14:58.963Z,19.35
2023-01-18T02:17:42.746Z,22.38
2023-01-18T02:20:45.656Z,26.92
2023-01-18T02:23:44.759Z,17.05
2023-01-18T02:26:46.907Z,22.25
2023-01-18T02:29:18.631Z,17.95
2023-01-18T02:32:01.813Z,18.25
2023-01-18T02:34:37.964Z,15.95
2023-01-18T02:37:11.711Z,17.73
2023-01-18T02:39:52.702Z,18.08
2023-01-18T02:42:39.786Z,16.95
2023-01-18T02:45:35.829Z,25.25
2023-01-18T02:48:04.497Z,29.42
2023-01-18T02:50:32.318Z,28.35
2023-01-18T02:53:00.237Z,34.13
2023-01-18T02:55:37.788Z,26.27
2023-01-18T02:58:10.797Z,31.83
2023-01-18T03:00:44.979Z,33.65
2023-01-18T03:03:14.317Z,28.75
2023-01-18T03:05:46.249Z,25.00
2023-01-18T03:08:20.906Z,28.98
2023-01-18T03:10:58.843Z,29.13
2023-01-18T03:13:35.851Z,17.60
2023-01-18T03:16:10.511Z,30.23
2023-01-18T03:19:00.292Z,22.48
2023-01-18T03:21:45.671Z,19.67
2023-01-18T03:24:15.674Z,22.27
2023-01-18T03:26:47.329Z,25.40
2023-01-18T03:29:36.039Z,34.25
2023-01-18T03:32:28.997Z,23.27
2023-01-18T03:35:03.739Z,27.95
2023-01-18T03:37:33.721Z,26.58
2023-01-18T03:40:07.296Z,23.92
2023-01-18T03:42:41.686Z,20.17
2023-01-18T03:45:16.801Z,17.63
2023-01-18T03:47:50.363Z,33.35
2023-01-18T03:50:18.390Z,27.50
2023-01-18T03:52:52.332Z,24.40
2023-01-18T03:55:25.127Z,32.53
2023-01-18T03:57:58.661Z,20.45
2023-01-18T04:00:26.673Z,19.75
2023-01-18T04:02:56.081Z,21.67
2023-01-18T04:05:25.204Z,15.07
2023-01-18T04:07:53.024Z,15.70
2023-01-18T04:10:21.065Z,22.45
2023-01-18T04:12:48.883Z,16.08
2023-01-18T04:15:16.838Z,21.33
2023-01-18T04:17:44.562Z,21.33
2023-01-18T04:20:13.731Z,19.85
2023-01-18T04:22:44.201Z,20.67
2023-01-18T04:25:11.972Z,21.77
2023-01-18T04:27:39.729Z,21.65
2023-01-18T04:30:08.903Z,17.05
2023-01-18T04:32:36.710Z,22.85
2023-01-18T04:35:04.773Z,16.38
2023-01-18T04:37:34.326Z,13.70
2023-01-18T04:40:02.146Z,19.00
2023-01-18T04:42:30.524Z,15.77
2023-01-18T04:44:59.787Z,19.50
2023-01-18T04:47:28.983Z,10.23
2023-01-18T04:49:57.305Z,18.83
2023-01-18T04:52:26.630Z,8.38
2023-01-18T04:54:55.678Z,24.90
2023-01-18T04:57:23.474Z,7.80
2023-01-18T04:59:53.038Z,7.72
2023-01-18T05:02:20.773Z,19.17
2023-01-18T05:04:48.805Z,20.85
2023-01-18T05:07:16.451Z,16.98
2023-01-18T05:09:44.232Z,23.30
2023-01-18T05:12:13.347Z,16.60
2023-01-18T05:14:41.149Z,17.65
2023-01-18T05:17:08.908Z,20.02
2023-01-18T05:19:36.725Z,14.30
2023-01-18T05:22:04.440Z,19.67
2023-01-18T05:24:32.526Z,10.80
2023-01-18T05:27:00.372Z,15.02
2023-01-18T05:29:29.638Z,12.10
2023-01-18T05:31:57.355Z,9.00
2023-01-18T05:34:25.158Z,10.48
2023-01-18T05:36:52.852Z,9.80
2023-01-18T05:39:20.589Z,12.27
2023-01-18T05:41:48.299Z,4.90
2023-01-18T05:44:16.019Z,12.10
2023-01-18T05:46:45.085Z,10.23
2023-01-18T05:49:12.759Z,8.90
2023-01-18T05:51:40.458Z,11.52
2023-01-18T05:54:08.394Z,7.85
2023-01-18T05:56:37.072Z,6.18
2023-01-18T05:59:05.771Z,9.43
2023-01-18T06:01:33.480Z,7.70
2023-01-18T06:04:02.573Z,11.23
2023-01-18T06:06:30.466Z,4.97
2023-01-18T06:08:58.510Z,7.72
2023-01-18T06:11:26.351Z,9.75
2023-01-18T06:13:54.033Z,13.80
2023-01-18T06:16:21.804Z,5.57
2023-01-18T06:18:49.534Z,7.53
2023-01-18T06:21:19.515Z,5.50
2023-01-18T06:23:47.652Z,7.97
2023-01-18T06:26:15.441Z,12.00
2023-01-18T06:28:43.167Z,4.13
2023-01-18T06:31:11.506Z,8.25
2023-01-18T06:33:39.274Z,10.63
2023-01-18T06:36:07.576Z,6.80
2023-01-18T06:38:36.720Z,8.80
2023-01-18T06:41:04.462Z,8.55
2023-01-18T06:43:32.142Z,8.10
2023-01-18T06:45:59.977Z,6.13
2023-01-18T06:48:29.789Z,5.70
2023-01-18T06:50:58.665Z,16.85
2023-01-18T06:53:27.134Z,7.68
2023-01-18T06:55:57.951Z,11.75
2023-01-18T06:58:26.942Z,12.25
2023-01-18T07:00:58.919Z,17.25
2023-01-18T07:03:28.443Z,11.77
2023-01-18T07:05:56.437Z,21.25
2023-01-18T07:08:24.776Z,13.82
2023-01-18T07:10:53.540Z,15.77
2023-01-18T07:13:25.045Z,11.98
2023-01-18T07:16:00.719Z,14.90
2023-01-18T07:18:32.075Z,17.52
2023-01-18T07:21:01.891Z,17.27
2023-01-18T07:23:30.629Z,25.05
2023-01-18T07:26:00.719Z,17.13
2023-01-18T07:28:30.483Z,11.02
2023-01-18T07:30:58.324Z,21.48
2023-01-18T07:33:26.587Z,17.98
2023-01-18T07:35:56.719Z,25.63
2023-01-18T07:38:25.599Z,21.83
2023-01-18T07:40:59.347Z,19.95
2023-01-18T07:45:59.264Z,13.50
2023-01-18T07:48:32.285Z,12.93
2023-01-18T07:51:01.730Z,15.90
2023-01-18T07:53:34.958Z,8.38
2023-01-18T07:56:04.249Z,16.58
2023-01-18T07:58:35.268Z,13.43
2023-01-18T08:01:05.149Z,28.45
2023-01-18T08:03:33.572Z,21.42
2023-01-18T08:06:02.024Z,22.90
2023-01-18T08:08:30.507Z,13.93
2023-01-18T08:10:59.862Z,21.42
2023-01-18T08:13:28.778Z,11.23
2023-01-18T08:16:02.538Z,13.77
2023-01-18T08:18:31.151Z,11.85
2023-01-18T08:21:00.304Z,10.23
2023-01-18T08:23:28.194Z,10.60
2023-01-18T08:26:00.994Z,7.82
2023-01-18T08:28:29.165Z,8.90
2023-01-18T08:31:13.684Z,17.15
2023-01-18T08:33:43.431Z,7.10
2023-01-18T08:36:13.972Z,12.27
2023-01-18T08:38:42.117Z,11.48
2023-01-18T08:41:10.235Z,10.77
2023-01-18T08:43:38.390Z,15.18
2023-01-18T08:46:07.663Z,7.45
2023-01-18T08:48:35.862Z,7.40
2023-01-18T08:51:04.091Z,13.68
2023-01-18T08:53:32.490Z,11.43
2023-01-18T08:56:00.329Z,7.28
2023-01-18T08:58:28.097Z,19.40
2023-01-18T09:00:56.395Z,13.63
2023-01-18T09:03:25.508Z,16.65
2023-01-18T09:05:53.221Z,13.35
2023-01-18T09:08:22.159Z,8.77
2023-01-18T09:10:49.897Z,10.27
2023-01-18T09:13:17.721Z,10.20
2023-01-18T09:15:46.927Z,10.85
2023-01-18T09:18:15.096Z,12.15
2023-01-18T09:20:44.228Z,15.85
2023-01-18T09:23:12.007Z,13.73
2023-01-18T09:25:41.776Z,12.93
2023-01-18T09:28:09.545Z,14.45
2023-01-18T09:30:37.367Z,7.45
2023-01-18T09:33:05.441Z,9.68
2023-01-18T09:35:33.735Z,14.07
2023-01-18T09:38:02.933Z,10.23
2023-01-18T09:40:43.005Z,9.35
2023-01-18T09:43:18.770Z,8.77
2023-01-18T09:45:51.354Z,12.48
2023-01-18T09:48:28.980Z,17.15
2023-01-18T09:51:02.238Z,11.13
2023-01-18T09:53:46.193Z,19.27
2023-01-18T09:59:00.446Z,18.08
2023-01-18T10:01:33.213Z,11.10
2023-01-18T10:04:05.405Z,11.50
2023-01-18T10:06:50.084Z,12.38
2023-01-18T10:09:28.314Z,15.10
2023-01-18T10:12:00.567Z,11.75
2023-01-18T10:14:47.239Z,10.57
2023-01-18T10:17:18.830Z,15.45
2023-01-18T10:19:48.574Z,18.13
2023-01-18T10:22:23.427Z,16.23
2023-01-18T10:24:59.860Z,11.38
2023-01-18T10:27:44.927Z,6.38
2023-01-18T10:30:28.055Z,10.77
2023-01-18T10:32:59.551Z,17.05
2023-01-18T10:35:31.790Z,16.20
2023-01-18T10:38:03.396Z,7.45
2023-01-18T10:40:33.791Z,5.72
2023-01-18T10:43:04.347Z,9.13
2023-01-18T10:45:34.608Z,9.90
2023-01-18T10:48:24.255Z,8.10
2023-01-18T10:50:54.919Z,11.23
2023-01-18T10:53:28.005Z,11.32
2023-01-18T10:56:02.863Z,9.60
2023-01-18T10:58:33.952Z,10.25
2023-01-18T11:01:04.028Z,7.95
2023-01-18T11:03:39.651Z,9.93
2023-01-18T11:06:08.996Z,13.52
2023-01-18T11:08:37.792Z,9.52
2023-01-18T11:11:16.867Z,10.98
2023-01-18T11:13:47.151Z,7.15
2023-01-18T11:16:18.206Z,8.80
2023-01-18T11:18:57.928Z,9.27
2023-01-18T11:21:26.529Z,6.43
2023-01-18T11:23:55.473Z,7.18
2023-01-18T11:26:25.290Z,8.70
2023-01-18T11:29:02.830Z,9.38
2023-01-18T11:31:35.845Z,8.27
2023-01-18T11:34:07.726Z,12.05
2023-01-18T11:36:46.978Z,8.70
2023-01-18T11:39:34.841Z,10.35
2023-01-18T11:42:26.620Z,11.10
2023-01-18T11:45:16.604Z,11.85
2023-01-18T11:47:54.458Z,3.45
2023-01-18T11:50:30.552Z,10.13
2023-01-18T11:53:04.987Z,7.25
2023-01-18T11:58:13.897Z,6.10
2023-01-18T12:00:51.243Z,10.43
2023-01-18T12:03:51.310Z,11.43
2023-01-18T12:06:29.933Z,11.02
2023-01-18T12:09:10.798Z,6.40
2023-01-18T12:11:50.325Z,11.43
2023-01-18T12:14:46.026Z,10.27
2023-01-18T12:17:27.604Z,5.50
2023-01-18T12:20:14.392Z,9.00
2023-01-18T12:23:05.358Z,14.07
2023-01-18T12:25:48.526Z,4.57
2023-01-18T12:28:33.285Z,6.28
2023-01-18T12:33:52.777Z,6.32
2023-01-18T12:36:46.125Z,15.80
2023-01-18T12:39:29.583Z,4.55
2023-01-18T12:42:01.309Z,15.20
2023-01-18T12:44:43.601Z,9.88
2023-01-18T12:47:40.644Z,13.13
2023-01-18T12:50:24.118Z,10.65
2023-01-18T12:52:58.608Z,14.48
2023-01-18T12:57:59.425Z,5.78
2023-01-18T13:00:35.337Z,7.68
2023-01-18T13:03:09.935Z,6.38
2023-01-18T13:05:51.118Z,7.25
2023-01-18T13:08:29.056Z,4.47
2023-01-18T13:11:06.469Z,3.45
2023-01-18T13:13:35.561Z,9.30
2023-01-18T13:16:17.405Z,2.78
2023-01-18T13:19:01.196Z,6.65
2023-01-18T13:21:43.300Z,5.45
2023-01-18T13:24:27.235Z,4.72
2023-01-18T13:27:09.540Z,3.75
2023-01-18T13:29:41.655Z,7.03
2023-01-18T13:32:26.460Z,9.10
2023-01-18T13:37:55.714Z,7.18
2023-01-18T13:40:27.532Z,9.95
2023-01-18T13:42:55.452Z,6.35
2023-01-18T13:45:28.221Z,3.40
2023-01-18T13:48:01.944Z,8.95
2023-01-18T13:50:45.051Z,11.57
2023-01-18T13:53:26.891Z,13.38
2023-01-18T13:56:24.284Z,11.93
2023-01-18T13:58:55.961Z,5.25
2023-01-18T14:01:32.737Z,11.57
2023-01-18T14:04:23.726Z,8.85
2023-01-18T14:06:58.603Z,11.63
2023-01-18T14:09:38.139Z,9.10
2023-01-18T14:12:07.056Z,5.60
2023-01-18T14:14:36.509Z,6.60
2023-01-18T14:17:16.941Z,10.27
2023-01-18T14:20:06.539Z,7.57
2023-01-18T14:23:05.729Z,13.70
2023-01-18T14:25:52.320Z,8.70
2023-01-18T14:28:26.240Z,11.57
2023-01-18T14:30:58.745Z,14.98
2023-01-18T14:33:31.905Z,10.75
2023-01-18T14:36:03.409Z,11.38
2023-01-18T14:38:40.056Z,11.45
2023-01-18T14:41:17.183Z,14.70
2023-01-18T14:43:48.720Z,14.88
2023-01-18T14:46:25.737Z,6.65
2023-01-18T14:48:56.073Z,9.60
2023-01-18T14:51:28.634Z,7.78
2023-01-18T14:54:00.726Z,13.88
2023-01-18T14:56:30.098Z,10.15
2023-01-18T14:59:03.477Z,6.32
2023-01-18T15:01:33.399Z,7.60
2023-01-18T15:04:08.021Z,11.13
2023-01-18T15:06:40.980Z,8.45
2023-01-18T15:09:12.929Z,4.25
2023-01-18T15:11:42.365Z,11.85
2023-01-18T15:14:15.700Z,5.97
2023-01-18T15:16:44.094Z,10.50
2023-01-18T15:19:17.764Z,6.25
2023-01-18T15:21:46.748Z,11.65
2023-01-18T15:24:19.250Z,8.65
2023-01-18T15:26:52.264Z,15.07
2023-01-18T15:29:25.038Z,8.50
2023-01-18T15:31:56.406Z,12.32
2023-01-18T15:34:30.171Z,14.25
2023-01-18T15:36:59.975Z,7.57
2023-01-18T15:39:29.390Z,9.82
2023-01-18T15:42:06.830Z,11.07
2023-01-18T15:44:41.520Z,5.57
2023-01-18T15:47:22.350Z,5.20
2023-01-18T15:49:52.525Z,5.60
2023-01-18T15:52:36.202Z,7.00
2023-01-18T15:55:07.040Z,10.63
2023-01-18T15:57:36.682Z,11.25
2023-01-18T16:00:05.936Z,10.15
2023-01-18T16:02:33.873Z,12.18
2023-01-18T16:05:21.669Z,11.80
2023-01-18T16:07:53.133Z,13.70
2023-01-18T16:10:31.157Z,15.65
2023-01-18T16:13:33.567Z,15.27
2023-01-18T16:16:09.397Z,8.10
2023-01-18T16:18:37.252Z,9.68
2023-01-18T16:21:13.101Z,20.20
2023-01-18T16:23:44.882Z,12.82
2023-01-18T16:26:15.740Z,15.35
2023-01-18T16:28:43.796Z,13.70
2023-01-18T16:31:11.704Z,13.77
2023-01-18T16:33:39.604Z,12.65
2023-01-18T16:36:17.599Z,15.10
2023-01-18T16:38:45.797Z,17.65
2023-01-18T16:41:16.891Z,16.83
2023-01-18T16:43:44.951Z,17.40
2023-01-18T16:46:13.110Z,14.80
2023-01-18T16:48:40.925Z,20.50
2023-01-18T16:51:18.651Z,16.75
2023-01-18T16:53:48.117Z,8.00
2023-01-18T16:56:22.297Z,10.82
2023-01-18T16:58:50.239Z,19.25
2023-01-18T17:01:18.188Z,10.98
2023-01-18T17:03:46.044Z,17.48
2023-01-18T17:06:18.120Z,7.35
2023-01-18T17:08:46.716Z,6.82
2023-01-18T17:11:14.660Z,3.20
2023-01-18T17:13:44.822Z,13.27
2023-01-18T17:16:18.667Z,18.10
2023-01-18T17:18:47.918Z,10.32
2023-01-18T17:21:15.739Z,9.80
2023-01-18T17:23:43.614Z,10.68
2023-01-18T17:26:13.942Z,7.60
2023-01-18T17:28:43.453Z,16.50
2023-01-18T17:31:11.697Z,8.05
2023-01-18T17:33:40.377Z,2.75
2023-01-18T17:36:09.737Z,6.13
2023-01-18T17:38:37.726Z,8.30
2023-01-18T17:41:08.220Z,2.15
2023-01-18T17:43:37.448Z,11.45
2023-01-18T17:46:07.773Z,15.25
2023-01-18T17:48:35.681Z,10.48
2023-01-18T17:51:07.476Z,10.70
2023-01-18T17:53:36.659Z,7.70
2023-01-18T17:56:07.492Z,18.20
2023-01-18T17:58:35.340Z,4.60
2023-01-18T18:01:11.328Z,12.60
2023-01-18T18:03:39.623Z,5.70
2023-01-18T18:06:08.141Z,19.35
2023-01-18T18:08:36.072Z,9.13
2023-01-18T18:11:07.824Z,8.52
2023-01-18T18:13:35.680Z,18.42
2023-01-18T18:16:05.026Z,4.95
2023-01-18T18:18:34.266Z,10.98
2023-01-18T18:21:04.617Z,2.97
2023-01-18T18:23:32.728Z,12.57
2023-01-18T18:26:02.978Z,12.20
2023-01-18T18:28:33.655Z,4.32
2023-01-18T18:31:01.597Z,4.10
2023-01-18T18:33:30.371Z,12.07
2023-01-18T18:36:00.197Z,16.85
2023-01-18T18:38:28.299Z,12.70
2023-01-18T18:41:03.017Z,23.08
2023-01-18T18:43:30.984Z,16.83
2023-01-18T18:45:59.259Z,3.28
2023-01-18T18:48:27.221Z,8.45
2023-01-18T18:50:55.833Z,10.55
2023-01-18T18:53:36.984Z,11.38
2023-01-18T18:56:06.924Z,17.92
2023-01-18T18:58:36.496Z,7.95
2023-01-18T19:01:05.214Z,5.25
2023-01-18T19:03:33.618Z,16.95
2023-01-18T19:06:01.794Z,8.10
2023-01-18T19:08:31.089Z,6.57
2023-01-18T19:10:59.680Z,13.90
2023-01-18T19:13:27.503Z,16.05
2023-01-18T19:15:57.077Z,16.60
2023-01-18T19:18:24.948Z,20.63
2023-01-18T19:20:52.824Z,10.90
2023-01-18T19:23:20.782Z,11.55
2023-01-18T19:25:50.235Z,11.70
2023-01-18T19:28:18.655Z,19.38
2023-01-18T19:30:46.565Z,12.38
2023-01-18T19:33:15.417Z,6.15
2023-01-18T19:35:44.802Z,5.10
2023-01-18T19:38:12.788Z,5.15
2023-01-18T19:40:40.681Z,14.65
2023-01-18T19:43:09.892Z,9.43
2023-01-18T19:45:38.932Z,5.57
2023-01-18T19:48:06.942Z,8.73
2023-01-18T19:50:34.755Z,6.53
2023-01-18T19:53:03.541Z,13.75
2023-01-18T19:55:31.494Z,10.10
2023-01-18T19:58:01.569Z,15.32
2023-01-18T20:00:31.060Z,16.20
2023-01-18T20:02:59.823Z,18.88
2023-01-18T20:05:28.353Z,14.73
2023-01-18T20:07:56.862Z,8.40
2023-01-18T20:10:24.724Z,11.80
2023-01-18T20:12:52.532Z,15.15
2023-01-18T20:15:21.238Z,8.20
2023-01-18T20:17:52.158Z,5.57
2023-01-18T20:20:31.682Z,7.82
2023-01-18T20:23:00.399Z,5.18
2023-01-18T20:25:28.395Z,20.85
2023-01-18T20:27:56.233Z,14.30
2023-01-18T20:30:24.492Z,9.45
2023-01-18T20:32:53.823Z,9.32
2023-01-18T20:35:23.891Z,10.15
2023-01-18T20:37:52.157Z,7.97
2023-01-18T20:40:20.082Z,5.70
2023-01-18T20:42:50.556Z,10.23
2023-01-18T20:45:18.520Z,1.42
2023-01-18T20:47:53.551Z,3.47
2023-01-18T20:50:23.127Z,4.38
2023-01-18T20:52:51.103Z,6.93
2023-01-18T20:55:19.343Z,16.33
2023-01-18T20:57:48.816Z,6.07
2023-01-18T21:00:18.004Z,6.40
2023-01-18T21:02:46.985Z,2.33
2023-01-18T21:05:16.832Z,10.18
2023-01-18T21:07:44.708Z,5.97
2023-01-18T21:10:13.030Z,8.68
2023-01-18T21:12:41.897Z,5.38
2023-01-18T21:15:10.524Z,6.35
2023-01-18T21:17:39.724Z,4.30
2023-01-18T21:20:09.465Z,5.63
2023-01-18T21:22:38.752Z,2.63
2023-01-18T21:25:08.676Z,1.70
2023-01-18T21:27:36.752Z,4.20
2023-01-18T21:30:05.603Z,3.40
2023-01-18T21:32:33.489Z,3.85
2023-01-18T21:35:01.295Z,5.38
2023-01-18T21:37:29.174Z,12.63
2023-01-18T21:39:58.304Z,2.63
2023-01-18T21:42:44.341Z,7.82
2023-01-18T21:45:30.444Z,1.48
2023-01-18T21:47:59.821Z,4.18
2023-01-18T21:50:45.344Z,9.90
2023-01-18T21:53:32.897Z,12.13
2023-01-18T21:56:02.164Z,9.48
2023-01-18T21:58:47.377Z,8.23
2023-01-18T22:01:18.024Z,5.57
2023-01-18T22:04:03.858Z,3.15
2023-01-18T22:06:31.662Z,12.30
2023-01-18T22:09:01.471Z,6.55
2023-01-18T22:11:30.876Z,9.00
2023-01-18T22:13:59.211Z,2.97
2023-01-18T22:16:30.499Z,4.63
2023-01-18T22:18:58.790Z,7.95
2023-01-18T22:21:28.356Z,8.82
2023-01-18T22:23:56.499Z,9.45
2023-01-18T22:26:27.660Z,11.48
2023-01-18T22:28:56.886Z,8.93
2023-01-18T22:31:25.334Z,13.00
2023-01-18T22:33:53.283Z,9.50
2023-01-18T22:36:21.088Z,11.00
2023-01-18T22:38:53.900Z,21.85
2023-01-18T22:41:23.898Z,13.88
2023-01-18T22:43:52.460Z,13.50
2023-01-18T22:46:23.574Z,5.18
2023-01-18T22:48:54.186Z,16.08
2023-01-18T22:51:23.907Z,12.68
2023-01-18T22:53:52.645Z,13.63
2023-01-18T22:56:23.056Z,13.75
2023-01-18T22:58:51.732Z,11.98
2023-01-18T23:01:24.943Z,16.00
2023-01-18T23:03:53.560Z,11.80
2023-01-18T23:06:21.724Z,13.70
2023-01-18T23:08:50.366Z,16.00
2023-01-18T23:11:19.867Z,15.77
2023-01-18T23:14:10.011Z,17.80
2023-01-18T23:16:58.014Z,23.38
2023-01-18T23:19:28.852Z,7.93
2023-01-18T23:21:57.567Z,14.38
2023-01-18T23:24:26.058Z,12.98
2023-01-18T23:26:53.854Z,18.02
2023-01-18T23:29:21.749Z,18.45
2023-01-18T23:31:50.947Z,15.55
2023-01-18T23:34:19.177Z,12.70
2023-01-18T23:36:47.010Z,16.50
2023-01-18T23:39:32.466Z,16.85
2023-01-18T23:42:17.762Z,19.05
2023-01-18T23:45:03.438Z,16.63
2023-01-18T23:47:50.088Z,20.58
2023-01-18T23:50:36.648Z,24.40
2023-01-18T23:53:21.936Z,19.25
2023-01-18T23:55:53.495Z,20.67
2023-01-18T23:58:21.310Z,21.08
